Tsabong, Botswana
Current Conditions -  °F | °C
As of 2:18 PM on Tuesday 27 Jan 2015 (Local Time) from FAUP Reporting Station
Scattered Clouds Scattered Clouds  
Wind Chill: 86°   Ceiling: Unl
Heat Index: 86°   Visibility: 6mi
Dew Point: 55°   Wind: 7mph
Humidity: 35%   Direction: 330°NNW
Pressure: 30"   Gusts: NA
Location:  26.01°S, 22.4°E
Report Text: FAUP 271218Z 33006KT 9999 SCT030 30/13 Q1016 NOSIG
Loading
Personal Weather Stations






























Interactive Weather Map New forecast layout! Learn more

10-Day Weather Forecast

Advertisements
Track Severe Weather on mobile